Time;durP1;ratioP1;P1;durP2;ratioP2;P2;SDS_P1;SDS_P2;PMS_P1;PMS_P2;Temp;Humidity;BMP_temperature;BMP_pressure;BME280_temperature;BME280_humidity;BME280_pressure;Samples;Min_cycle;Max_cycle;Signal;HPM_P1;HPM_P2
2022/08/21 00:00:36;;;;;;;12.60;2.90;;;;;;;19.98;65.56;99055.73;25118;1313;3069839;-61
2022/08/21 00:03:06;;;;;;;9.90;2.40;;;;;;;19.96;65.65;99066.20;25026;1315;3026782;-60
2022/08/21 00:05:39;;;;;;;20.30;2.90;;;;;;;20.50;64.43;99061.18;25202;1313;3050928;-61
2022/08/21 00:08:08;;;;;;;12.00;2.60;;;;;;;20.98;62.61;99058.48;25232;1313;3026765;-60
2022/08/21 00:10:39;;;;;;;21.60;3.20;;;;;;;21.20;62.36;99055.56;25204;1313;3026629;-59
2022/08/21 00:13:09;;;;;;;22.10;3.70;;;;;;;21.05;62.04;99049.73;25175;1314;3053717;-60
2022/08/21 00:15:38;;;;;;;19.40;3.10;;;;;;;20.92;62.61;99050.35;25120;1313;3026454;-61
2022/08/21 00:18:10;;;;;;;18.60;4.30;;;;;;;20.81;62.83;99050.95;25163;1313;3054753;-61
2022/08/21 00:20:40;;;;;;;17.10;2.50;;;;;;;20.61;63.23;99051.41;25118;1314;3027537;-62
2022/08/21 00:23:08;;;;;;;19.30;3.00;;;;;;;20.42;63.53;99047.23;25056;1313;3028467;-60
2022/08/21 00:25:38;;;;;;;19.30;4.10;;;;;;;20.33;63.90;99042.78;25126;1315;3055117;-60
2022/08/21 00:28:08;;;;;;;11.60;2.60;;;;;;;20.28;64.10;99040.23;25056;1315;3027012;-60
2022/08/21 00:30:37;;;;;;;17.50;2.90;;;;;;;20.23;64.07;99041.10;25042;1313;3026607;-62
2022/08/21 00:33:10;;;;;;;21.90;3.30;;;;;;;20.17;64.28;99042.66;25071;1313;3026525;-61
2022/08/21 00:35:40;;;;;;;14.30;2.90;;;;;;;20.02;64.85;99043.31;25079;1313;3027653;-61
2022/08/21 00:38:09;;;;;;;19.20;3.40;;;;;;;19.97;64.86;99039.80;25067;1313;3026318;-61
2022/08/21 00:40:47;;;;;;;17.90;3.00;;;;;;;19.90;65.45;99037.92;25038;1317;3026904;-60
2022/08/21 00:43:19;;;;;;;18.20;3.60;;;;;;;19.83;65.54;99031.84;25047;1313;3052523;-61
2022/08/21 00:45:48;;;;;;;18.20;2.70;;;;;;;19.78;66.01;99032.01;25130;1313;3026932;-61
2022/08/21 00:48:17;;;;;;;20.70;3.30;;;;;;;19.76;65.84;99029.01;25103;1313;3026507;-61
2022/08/21 00:50:50;;;;;;;13.40;2.70;;;;;;;19.73;66.31;99031.46;25080;1313;3049499;-61
2022/08/21 00:53:19;;;;;;;15.90;2.90;;;;;;;19.62;66.91;99028.34;25079;1313;3026392;-61
2022/08/21 00:55:48;;;;;;;16.40;2.40;;;;;;;19.64;66.80;99022.69;25109;1313;3026773;-60
2022/08/21 00:58:17;;;;;;;16.60;2.50;;;;;;;20.18;65.75;99026.94;25024;1315;3051568;-62
2022/08/21 01:00:47;;;;;;;21.20;2.70;;;;;;;20.67;64.00;99025.89;25073;1313;3026126;-62
2022/08/21 01:03:20;;;;;;;11.50;2.60;;;;;;;20.77;63.76;99022.46;25066;1313;3056936;-61
2022/08/21 01:05:49;;;;;;;30.70;3.40;;;;;;;20.67;63.75;99026.23;25040;1313;3026995;-59
2022/08/21 01:08:19;;;;;;;17.80;2.70;;;;;;;20.48;64.34;99021.86;25104;1315;3027103;-61
2022/08/21 01:10:48;;;;;;;22.10;2.90;;;;;;;20.38;64.65;99019.30;25095;1313;3056375;-60
2022/08/21 01:13:18;;;;;;;15.20;3.20;;;;;;;20.23;65.15;99021.52;25033;1316;3026694;-61
2022/08/21 01:15:48;;;;;;;24.10;2.90;;;;;;;20.07;65.63;99027.55;25027;1315;3054141;-60
2022/08/21 01:18:18;;;;;;;19.40;3.10;;;;;;;20.02;65.69;99022.23;25082;1313;3027165;-61
2022/08/21 01:21:07;;;;;;;26.30;3.40;;;;;;;19.95;65.82;99017.44;25077;1315;3026633;-61
2022/08/21 01:23:38;;;;;;;25.60;3.60;;;;;;;19.82;66.32;99017.58;25050;1315;3055239;-59
2022/08/21 01:26:07;;;;;;;24.60;3.00;;;;;;;19.71;66.73;99011.04;25128;1313;3026895;-60
2022/08/21 01:28:38;;;;;;;18.80;3.20;;;;;;;19.63;66.80;99007.45;25077;1313;3026563;-60
2022/08/21 01:31:08;;;;;;;20.00;3.20;;;;;;;19.62;66.76;99002.49;25121;1315;3052342;-61
2022/08/21 01:33:37;;;;;;;21.20;3.00;;;;;;;19.57;66.71;99003.67;25023;1315;3026428;-60
2022/08/21 01:36:06;;;;;;;20.80;3.00;;;;;;;19.51;67.15;99003.26;25084;1313;3026411;-61
2022/08/21 01:38:35;;;;;;;12.00;2.20;;;;;;;19.46;67.49;99008.92;25118;1315;3055134;-60
2022/08/21 01:41:04;;;;;;;15.70;2.10;;;;;;;19.99;66.01;99003.54;25069;1315;3026659;-61
2022/08/21 01:43:33;;;;;;;23.30;2.80;;;;;;;20.46;64.45;99001.16;25086;1313;3048535;-61
2022/08/21 01:46:03;;;;;;;18.00;2.80;;;;;;;20.56;64.12;98999.13;25069;1313;3026853;-60
2022/08/21 01:48:32;;;;;;;18.40;3.20;;;;;;;20.41;64.42;98999.88;25087;1315;3058544;-61
2022/08/21 01:51:02;;;;;;;16.80;2.80;;;;;;;20.20;65.10;98999.72;25096;1313;3026299;-61
2022/08/21 01:53:33;;;;;;;25.30;3.10;;;;;;;20.05;65.56;99005.73;25048;1313;3054632;-62
2022/08/21 01:56:07;;;;;;;24.90;3.20;;;;;;;19.89;66.02;99007.27;25060;1313;3026540;-60
2022/08/21 01:58:36;;;;;;;19.00;3.00;;;;;;;19.68;66.86;99006.40;25104;1313;3048953;-61
2022/08/21 02:01:05;;;;;;;20.70;3.30;;;;;;;19.52;67.43;99013.45;25052;1315;3026931;-61
2022/08/21 02:03:34;;;;;;;16.40;2.90;;;;;;;19.44;67.67;99012.34;25067;1315;3055744;-59
2022/08/21 02:06:05;;;;;;;20.90;3.30;;;;;;;19.38;67.88;99016.17;25048;1315;3026085;-61
2022/08/21 02:08:34;;;;;;;20.50;3.30;;;;;;;19.31;68.02;99019.01;25091;1315;3026635;-61
2022/08/21 02:11:03;;;;;;;16.60;2.60;;;;;;;19.24;68.50;99020.64;25062;1313;3029182;-60
2022/08/21 02:13:32;;;;;;;15.70;3.90;;;;;;;19.21;68.61;99020.92;25086;1313;3051022;-60
2022/08/21 02:16:02;;;;;;;18.00;2.40;;;;;;;19.75;67.33;99016.58;25080;1315;3028814;-60
2022/08/21 02:18:31;;;;;;;21.20;2.30;;;;;;;20.29;65.55;99016.96;25064;1313;3026804;-62
2022/08/21 02:21:01;;;;;;;14.30;2.20;;;;;;;20.40;64.76;99019.36;25058;1313;3027268;-60
2022/08/21 02:23:30;;;;;;;22.90;4.00;;;;;;;20.33;64.76;99025.88;25102;1313;3026633;-61
2022/08/21 02:26:04;;;;;;;15.00;3.60;;;;;;;20.14;65.17;99026.30;25059;1315;3053028;-60
2022/08/21 02:28:34;;;;;;;18.80;2.90;;;;;;;19.95;65.75;99027.10;25109;1315;3068882;-61
2022/08/21 02:31:03;;;;;;;18.00;3.40;;;;;;;19.85;65.95;99030.11;25084;1313;3026273;-62
2022/08/21 02:33:33;;;;;;;18.50;2.70;;;;;;;19.70;66.36;99028.42;25036;1313;3026583;-62
2022/08/21 02:36:03;;;;;;;25.00;3.10;;;;;;;19.55;66.93;99033.25;25114;1313;3026149;-62
2022/08/21 02:38:34;;;;;;;18.90;2.80;;;;;;;19.47;67.15;99033.88;25067;1313;3026835;-61
2022/08/21 02:41:04;;;;;;;17.90;2.90;;;;;;;19.33;67.73;99035.13;25073;1313;3028001;-61
2022/08/21 02:43:34;;;;;;;29.00;3.50;;;;;;;19.31;67.76;99035.69;25105;1313;3026747;-61
2022/08/21 02:46:03;;;;;;;26.80;4.40;;;;;;;19.28;67.72;99037.64;25074;1313;3026232;-61
2022/08/21 02:48:33;;;;;;;10.60;1.60;;;;;;;19.22;68.14;99036.58;25020;1315;3049033;-60
2022/08/21 02:51:07;;;;;;;16.90;2.70;;;;;;;19.74;66.91;99036.52;25102;1313;3026719;-61
2022/08/21 02:53:36;;;;;;;;;;;;;;;20.25;65.06;99035.27;25126;1313;3051724;-62
2022/08/21 02:56:06;;;;;;;13.90;2.40;;;;;;;20.29;64.53;99042.60;25018;1313;3026819;-62
2022/08/21 02:58:38;;;;;;;19.50;3.20;;;;;;;20.23;64.62;99046.51;25071;1313;3053726;-61
2022/08/21 03:01:09;;;;;;;26.70;4.00;;;;;;;20.06;65.07;99044.78;25074;1313;3027992;-62
2022/08/21 03:03:40;;;;;;;10.50;2.40;;;;;;;19.89;65.53;99041.95;25097;1313;3029222;-58
2022/08/21 03:06:11;;;;;;;17.10;2.90;;;;;;;19.77;65.96;99043.38;25097;1313;3027287;-60
2022/08/21 03:08:40;;;;;;;24.10;2.90;;;;;;;19.64;66.40;99043.49;25082;1315;3026727;-62
2022/08/21 03:11:09;;;;;;;16.20;3.10;;;;;;;19.53;67.03;99041.63;25081;1313;3026374;-60
2022/08/21 03:13:38;;;;;;;21.70;3.20;;;;;;;19.49;67.05;99042.55;25060;1313;3051444;-62
2022/08/21 03:16:08;;;;;;;10.70;2.60;;;;;;;19.47;66.73;99045.77;25142;1313;3026190;-61
2022/08/21 03:18:37;;;;;;;18.30;2.90;;;;;;;19.41;67.19;99051.48;25031;1315;3067286;-60
2022/08/21 03:21:06;;;;;;;23.10;3.20;;;;;;;19.33;67.58;99057.30;25088;1314;3026233;-61
2022/08/21 03:23:36;;;;;;;18.10;2.80;;;;;;;19.25;67.76;99058.98;25099;1315;3051106;-60
2022/08/21 03:26:06;;;;;;;16.50;1.80;;;;;;;19.26;68.00;99065.19;25009;1315;3026631;-60
2022/08/21 03:28:35;;;;;;;15.40;2.20;;;;;;;19.78;66.69;99067.04;25047;1313;3027134;-60
2022/08/21 03:31:05;;;;;;;23.30;2.80;;;;;;;20.29;65.05;99065.08;24400;1313;4607662;-61
2022/08/21 03:33:35;;;;;;;19.50;2.70;;;;;;;20.32;64.77;99062.39;25042;1313;3028003;-61
2022/08/21 03:36:05;;;;;;;29.50;3.50;;;;;;;20.27;64.89;99065.63;25109;1313;3026912;-61
2022/08/21 03:38:36;;;;;;;18.50;4.70;;;;;;;20.09;65.35;99063.59;25082;1313;3051602;-60
2022/08/21 03:41:06;;;;;;;13.90;3.10;;;;;;;20.01;65.61;99062.84;25130;1312;3027045;-60
2022/08/21 03:43:35;;;;;;;23.00;3.50;;;;;;;19.85;66.20;99065.47;25085;1313;3027011;-60
2022/08/21 03:46:05;;;;;;;18.90;3.30;;;;;;;19.71;66.82;99065.30;25040;1313;3029209;-61
2022/08/21 03:48:35;;;;;;;21.20;3.00;;;;;;;19.61;67.14;99064.58;25080;1315;3026536;-60
2022/08/21 03:51:06;;;;;;;22.00;3.20;;;;;;;19.52;67.58;99066.23;25116;1313;3027604;-61
2022/08/21 03:53:36;;;;;;;18.00;4.40;;;;;;;19.47;67.48;99067.80;25055;1315;3028930;-60
2022/08/21 03:56:05;;;;;;;20.10;3.60;;;;;;;19.42;67.86;99071.89;25048;1313;3026453;-61
2022/08/21 03:58:35;;;;;;;16.40;3.50;;;;;;;19.39;67.89;99071.83;25056;1313;3026333;-61
2022/08/21 04:01:05;;;;;;;19.50;3.90;;;;;;;19.40;68.14;99065.52;25083;1313;3027587;-60
2022/08/21 04:03:36;;;;;;;25.60;3.50;;;;;;;19.92;66.66;99066.07;25107;1313;3053463;-61
2022/08/21 04:06:06;;;;;;;15.70;2.70;;;;;;;20.45;64.66;99061.55;25040;1315;3026732;-60
2022/08/21 04:08:35;;;;;;;19.30;3.30;;;;;;;20.59;63.89;99061.08;25032;1313;3026632;-60
2022/08/21 04:11:04;;;;;;;20.30;3.40;;;;;;;20.53;64.10;99063.91;25093;1315;3026499;-60
2022/08/21 04:13:34;;;;;;;21.90;3.30;;;;;;;20.41;64.25;99066.45;25133;1313;3026717;-60
2022/08/21 04:16:04;;;;;;;28.40;4.40;;;;;;;20.31;64.70;99070.31;25091;1313;3027499;-60
2022/08/21 04:18:35;;;;;;;20.10;3.60;;;;;;;20.17;65.17;99073.63;25069;1313;3026511;-61
2022/08/21 04:21:04;;;;;;;17.80;2.60;;;;;;;20.11;65.28;99071.70;25095;1313;3026027;-61
2022/08/21 04:23:33;;;;;;;22.40;3.20;;;;;;;20.03;65.89;99070.81;25008;1317;3054725;-59
2022/08/21 04:26:03;;;;;;;22.20;3.30;;;;;;;20.01;65.89;99070.34;25040;1315;3027462;-62
2022/08/21 04:28:32;;;;;;;18.00;3.70;;;;;;;19.99;66.06;99071.14;25085;1313;3026764;-60
2022/08/21 04:31:00;;;;;;;20.40;3.50;;;;;;;19.97;66.40;99065.27;25035;1315;3052189;-61
2022/08/21 04:33:29;;;;;;;19.20;4.00;;;;;;;19.98;66.20;99064.27;25146;1313;3026374;-60
2022/08/21 04:35:59;;;;;;;19.70;3.60;;;;;;;20.00;66.28;99064.71;25035;1315;3055146;-61
2022/08/21 04:38:28;;;;;;;26.30;4.00;;;;;;;20.01;66.29;99068.18;25088;1313;3026181;-60
2022/08/21 04:40:57;;;;;;;18.50;2.30;;;;;;;20.01;66.66;99068.88;25082;1313;3050345;-61
2022/08/21 04:43:26;;;;;;;27.30;3.70;;;;;;;20.54;65.24;99069.05;25108;1313;3026580;-60
2022/08/21 04:45:55;;;;;;;22.90;3.50;;;;;;;21.11;63.81;99076.05;25037;1315;3071120;-62
2022/08/21 04:48:24;;;;;;;21.80;3.80;;;;;;;21.18;63.06;99070.31;25118;1313;3026471;-63
2022/08/21 04:50:59;;;;;;;24.80;3.30;;;;;;;21.10;63.46;99066.17;25075;1315;3053632;-63
2022/08/21 04:53:37;;;;;;;24.70;4.20;;;;;;;21.06;63.62;99064.05;25076;1313;3068756;-61
2022/08/21 04:56:30;;;;;;;21.10;3.60;;;;;;;20.97;63.68;99063.74;25114;1315;3049066;-61
2022/08/21 04:59:02;;;;;;;27.50;4.20;;;;;;;20.83;64.18;99066.70;25086;1313;3055683;-60
2022/08/21 05:01:34;;;;;;;22.60;4.10;;;;;;;20.76;64.79;99069.38;25109;1313;3027411;-61
2022/08/21 05:04:04;;;;;;;24.40;3.70;;;;;;;20.74;64.67;99070.54;25066;1313;3026898;-61
2022/08/21 05:06:34;;;;;;;19.70;3.80;;;;;;;20.72;64.94;99069.13;25055;1315;3027561;-63
2022/08/21 05:09:04;;;;;;;19.40;5.10;;;;;;;20.69;64.86;99067.10;25160;1313;3026555;-61
2022/08/21 05:11:34;;;;;;;21.20;3.80;;;;;;;20.68;64.97;99065.35;25090;1315;3026412;-61
2022/08/21 05:14:03;;;;;;;16.20;3.60;;;;;;;20.69;64.95;99060.38;25073;1316;3027869;-62
2022/08/21 05:16:33;;;;;;;22.90;3.60;;;;;;;20.68;65.10;99059.91;25051;1313;3026207;-61
2022/08/21 05:19:02;;;;;;;20.60;4.30;;;;;;;20.75;64.71;99058.30;25117;1313;3026413;-62
2022/08/21 05:21:31;;;;;;;29.00;5.60;;;;;;;20.82;64.56;99055.64;25044;1313;3069189;-60
2022/08/21 05:24:01;;;;;;;26.40;4.00;;;;;;;20.87;64.41;99053.84;25050;1313;3027030;-61
2022/08/21 05:26:30;;;;;;;19.20;3.80;;;;;;;20.88;64.54;99050.43;25043;1313;3026670;-60
2022/08/21 05:28:59;;;;;;;29.80;4.10;;;;;;;20.91;64.71;99050.45;25121;1313;3026869;-61
2022/08/21 05:31:28;;;;;;;19.70;4.20;;;;;;;20.95;64.53;99048.83;25103;1313;3051076;-61
2022/08/21 05:33:58;;;;;;;24.10;4.00;;;;;;;21.04;64.25;99049.61;25129;1313;3027305;-61
2022/08/21 05:36:27;;;;;;;21.20;3.90;;;;;;;21.11;64.25;99051.78;25051;1315;3071013;-61
2022/08/21 05:38:56;;;;;;;21.50;4.10;;;;;;;21.19;64.33;99049.43;25114;1313;3026270;-62
2022/08/21 05:41:25;;;;;;;22.80;3.60;;;;;;;21.27;64.02;99047.72;25080;1318;3054364;-62
2022/08/21 05:43:54;;;;;;;21.00;3.60;;;;;;;21.38;63.75;99043.65;25127;1315;3027063;-60
2022/08/21 05:46:23;;;;;;;24.40;3.90;;;;;;;21.45;63.57;99041.40;25098;1313;3053748;-61
2022/08/21 05:48:52;;;;;;;31.50;5.00;;;;;;;21.51;63.41;99044.95;25107;1313;3026462;-61
2022/08/21 05:51:22;;;;;;;24.00;4.20;;;;;;;21.48;63.98;99045.27;25131;1315;3049203;-62
2022/08/21 05:53:50;;;;;;;36.40;4.50;;;;;;;21.45;64.00;99044.92;25061;1315;3026255;-61
2022/08/21 05:56:19;;;;;;;24.90;3.80;;;;;;;21.40;64.38;99046.84;25095;1315;3056436;-62
2022/08/21 05:58:49;;;;;;;23.60;4.10;;;;;;;21.35;64.64;99046.85;25067;1313;3028205;-60
2022/08/21 06:01:18;;;;;;;29.20;4.30;;;;;;;21.33;64.74;99047.67;25108;1313;3054731;-62
2022/08/21 06:03:46;;;;;;;34.30;4.70;;;;;;;21.33;64.71;99057.08;25060;1315;3027449;-61
2022/08/21 06:06:15;;;;;;;26.90;4.30;;;;;;;21.33;64.91;99055.29;25139;1313;3056238;-63
2022/08/21 06:08:45;;;;;;;25.30;2.90;;;;;;;21.34;64.96;99063.22;25053;1313;3026804;-61
2022/08/21 06:11:14;;;;;;;18.40;3.50;;;;;;;21.92;63.78;99058.56;25081;1315;3050438;-61
2022/08/21 06:13:43;;;;;;;22.80;4.10;;;;;;;22.56;61.74;99054.89;25057;1313;3026544;-62
2022/08/21 06:16:14;;;;;;;31.50;4.90;;;;;;;22.70;60.99;99050.14;25040;1315;3070074;-62
2022/08/21 06:18:44;;;;;;;26.10;4.90;;;;;;;22.64;60.76;99051.60;25138;1315;3026222;-62
2022/08/21 06:21:13;;;;;;;28.00;4.30;;;;;;;22.45;61.57;99055.58;25054;1313;3026707;-59
2022/08/21 06:23:43;;;;;;;34.90;4.00;;;;;;;22.42;61.49;99054.84;25073;1313;3026506;-61
2022/08/21 06:26:13;;;;;;;25.90;4.60;;;;;;;22.34;61.91;99055.79;25058;1315;3026830;-63
2022/08/21 06:28:43;;;;;;;21.30;4.30;;;;;;;22.44;61.85;99056.42;25085;1313;3051836;-63
2022/08/21 06:31:15;;;;;;;27.80;5.30;;;;;;;22.57;61.71;99059.23;25055;1313;3026874;-62
2022/08/21 06:33:44;;;;;;;23.30;4.10;;;;;;;22.67;61.40;99052.71;25103;1313;3027012;-61
2022/08/21 06:36:13;;;;;;;30.90;5.60;;;;;;;22.78;61.23;99052.05;25019;1313;3026332;-64
2022/08/21 06:38:42;;;;;;;26.30;4.40;;;;;;;22.86;61.23;99051.10;25106;1313;3052099;-62
2022/08/21 06:41:11;;;;;;;29.70;5.50;;;;;;;23.02;60.72;99051.96;25051;1313;3026494;-62
2022/08/21 06:43:40;;;;;;;36.10;4.80;;;;;;;23.16;60.56;99049.59;25077;1315;3054618;-61
2022/08/21 06:46:09;;;;;;;34.40;6.00;;;;;;;23.25;60.58;99050.64;25050;1314;3026358;-62
2022/08/21 06:48:38;;;;;;;30.90;5.10;;;;;;;23.35;60.33;99050.92;25057;1315;3051593;-63
2022/08/21 06:51:07;;;;;;;27.60;5.00;;;;;;;23.47;60.30;99045.81;25145;1313;3026558;-63
2022/08/21 06:53:36;;;;;;;28.60;5.10;;;;;;;23.56;60.30;99042.09;25048;1313;3070467;-62
2022/08/21 06:56:05;;;;;;;29.70;5.20;;;;;;;23.64;60.43;99039.73;25094;1315;3026858;-61
2022/08/21 06:58:35;;;;;;;41.80;5.00;;;;;;;23.68;60.78;99041.77;25039;1313;3050937;-61
2022/08/21 07:01:04;;;;;;;43.40;6.90;;;;;;;23.76;60.30;99041.06;25090;1313;3026587;-62
2022/08/21 07:03:38;;;;;;;40.50;5.70;;;;;;;23.81;60.31;99042.41;25065;1315;3055334;-62
2022/08/21 07:06:08;;;;;;;35.60;5.30;;;;;;;23.90;59.79;99037.61;25060;1313;3053690;-60
2022/08/21 07:08:37;;;;;;;43.80;6.20;;;;;;;23.96;59.82;99036.53;25035;1313;3027840;-62
2022/08/21 07:11:13;;;;;;;43.10;6.90;;;;;;;23.93;60.11;99028.95;25042;1313;3026337;-61
2022/08/21 07:13:42;;;;;;;42.80;7.90;;;;;;;24.05;59.60;99030.60;25116;1315;3053526;-62
2022/08/21 07:16:11;;;;;;;59.10;7.60;;;;;;;24.18;59.22;99028.54;25045;1318;3026759;-61
2022/08/21 07:18:41;;;;;;;50.10;6.20;;;;;;;24.25;59.54;99038.23;25043;1315;3027113;-62
2022/08/21 07:21:10;;;;;;;50.00;6.40;;;;;;;24.34;58.87;99035.74;25095;1313;3026719;-61
2022/08/21 07:23:41;;;;;;;53.50;7.90;;;;;;;24.44;58.09;99034.96;25049;1313;3055326;-61
2022/08/21 07:26:11;;;;;;;45.60;6.20;;;;;;;24.49;58.14;99037.60;25080;1315;3026982;-61
2022/08/21 07:28:40;;;;;;;44.40;6.60;;;;;;;24.55;58.33;99039.88;25109;1315;3028958;-62
2022/08/21 07:31:10;;;;;;;54.80;7.00;;;;;;;24.65;58.23;99033.30;25131;1313;3026325;-61
2022/08/21 07:33:39;;;;;;;49.40;5.80;;;;;;;24.76;57.76;99040.81;25065;1313;3058577;-62
2022/08/21 07:36:08;;;;;;;56.30;6.50;;;;;;;24.83;57.97;99045.70;25140;1313;3026405;-62
2022/08/21 07:38:38;;;;;;;55.50;7.40;;;;;;;24.88;57.89;99043.13;25103;1313;3054754;-62
2022/08/21 07:41:14;;;;;;;69.90;8.30;;;;;;;25.04;57.44;99038.85;25049;1313;3026853;-61
2022/08/21 07:43:44;;;;;;;51.70;6.60;;;;;;;25.15;57.10;99038.34;25065;1313;3051432;-61
2022/08/21 07:46:13;;;;;;;48.40;8.30;;;;;;;25.26;56.52;99036.20;25070;1313;3026965;-62
2022/08/21 07:48:43;;;;;;;64.60;7.20;;;;;;;25.34;56.55;99035.64;25044;1315;3026693;-62
2022/08/21 07:51:14;;;;;;;50.00;6.80;;;;;;;25.43;56.75;99035.16;25015;1315;3026522;-61
2022/08/21 07:53:48;;;;;;;50.20;7.40;;;;;;;25.53;56.84;99037.10;25046;1318;3027321;-62
2022/08/21 07:56:17;;;;;;;51.90;8.80;;;;;;;25.62;56.81;99038.75;25054;1318;3051522;-61
2022/08/21 07:58:46;;;;;;;78.80;9.10;;;;;;;25.74;56.71;99036.38;25067;1313;3026634;-61
2022/08/21 08:01:16;;;;;;;47.80;7.40;;;;;;;25.77;56.70;99031.95;25070;1315;3026418;-61
2022/08/21 08:03:45;;;;;;;58.60;8.00;;;;;;;25.83;56.32;99031.08;25060;1315;3026602;-61
2022/08/21 08:06:15;;;;;;;64.10;7.60;;;;;;;25.89;56.10;99027.77;25107;1313;3068439;-61
2022/08/21 08:08:44;;;;;;;54.40;6.60;;;;;;;25.93;56.07;99025.16;25033;1315;3026691;-60
2022/08/21 08:11:17;;;;;;;47.30;8.00;;;;;;;25.92;55.70;99024.09;25103;1313;3026893;-62
2022/08/21 08:13:48;;;;;;;57.80;7.70;;;;;;;25.98;55.46;99024.80;25083;1313;3027585;-61
2022/08/21 08:16:17;;;;;;;58.40;7.20;;;;;;;26.04;55.44;99025.95;25058;1313;3026427;-62
2022/08/21 08:18:46;;;;;;;60.20;7.30;;;;;;;26.19;55.28;99020.02;25052;1313;3026404;-61
2022/08/21 08:21:15;;;;;;;51.40;8.70;;;;;;;26.25;54.69;99018.58;25125;1313;3026406;-61
2022/08/21 08:23:44;;;;;;;53.30;7.70;;;;;;;26.32;54.59;99020.61;25056;1313;3058357;-61
2022/08/21 08:26:15;;;;;;;37.50;6.70;;;;;;;26.43;53.82;99020.02;25155;1313;3026788;-62
2022/08/21 08:28:46;;;;;;;58.00;7.00;;;;;;;26.36;53.36;99015.88;25111;1313;3054126;-61
2022/08/21 08:31:16;;;;;;;50.70;8.10;;;;;;;26.44;53.52;99018.46;25122;1313;3026646;-62
2022/08/21 08:33:45;;;;;;;42.90;7.10;;;;;;;26.56;53.46;99014.56;25078;1313;3029380;-61
2022/08/21 08:36:17;;;;;;;59.70;6.50;;;;;;;26.57;52.90;99017.20;25097;1313;3026704;-62
2022/08/21 08:38:47;;;;;;;69.00;7.10;;;;;;;26.70;52.47;99020.09;25105;1313;3056519;-64
2022/08/21 08:41:21;;;;;;;62.00;6.70;;;;;;;26.77;51.59;99009.71;25137;1313;3026333;-61
2022/08/21 08:43:53;;;;;;;49.40;6.90;;;;;;;26.89;51.61;99012.02;25117;1315;3052983;-60
2022/08/21 08:46:38;;;;;;;54.50;6.60;;;;;;;27.01;51.59;99017.25;25131;1313;3026651;-61
2022/08/21 08:49:11;;;;;;;55.80;6.50;;;;;;;26.92;51.44;99015.61;25053;1315;3071562;-63
2022/08/21 08:51:40;;;;;;;;;;;;;;;26.88;51.82;99014.59;25084;1313;3049131;-61
2022/08/21 08:54:13;;;;;;;46.20;6.50;;;;;;;26.79;51.66;99015.23;25079;1315;3026556;-62
2022/08/21 08:56:42;;;;;;;43.20;6.10;;;;;;;26.86;51.64;99014.35;25104;1313;3067254;-61
2022/08/21 08:59:26;;;;;;;40.40;6.10;;;;;;;27.01;51.58;99019.34;25093;1313;3026654;-62
2022/08/21 09:01:55;;;;;;;49.00;7.00;;;;;;;27.13;51.43;99019.70;25035;1313;3052217;-62
2022/08/21 09:04:25;;;;;;;47.30;7.60;;;;;;;27.29;50.83;99019.58;25094;1315;3026424;-63
2022/08/21 09:07:09;;;;;;;53.00;6.40;;;;;;;27.40;49.67;99022.02;25111;1313;3055253;-62
2022/08/21 09:09:54;;;;;;;55.80;6.10;;;;;;;27.48;49.56;99022.14;25052;1313;3054539;-61
2022/08/21 09:12:29;;;;;;;46.30;6.40;;;;;;;27.60;49.04;99023.92;25035;1315;3071624;-62
2022/08/21 09:15:21;;;;;;;57.70;6.40;;;;;;;27.77;47.99;99022.88;25086;1313;3049477;-63
2022/08/21 09:18:25;;;;;;;68.90;7.40;;;;;;;27.88;47.22;99031.37;25091;1313;3053142;-64
2022/08/21 09:21:09;;;;;;;44.30;7.00;;;;;;;28.03;46.73;99039.58;25095;1313;3053174;-63
2022/08/21 09:23:51;;;;;;;50.70;6.30;;;;;;;28.10;46.12;99043.17;25088;1313;3058387;-63
2022/08/21 09:26:26;;;;;;;37.20;7.00;;;;;;;28.24;45.98;99042.05;25100;1315;3052816;-63
2022/08/21 09:28:58;;;;;;;42.80;6.00;;;;;;;28.42;46.26;99040.80;25036;1315;3053273;-62
2022/08/21 09:31:32;;;;;;;43.50;6.10;;;;;;;28.52;45.85;99037.63;25094;1313;3026201;-61
2022/08/21 09:34:11;;;;;;;29.00;4.20;;;;;;;28.63;45.78;99033.71;25072;1313;3068098;-62
2022/08/21 09:36:45;;;;;;;45.30;5.30;;;;;;;28.79;46.21;99031.27;25058;1315;3049008;-62
2022/08/21 09:39:37;;;;;;;36.90;4.60;;;;;;;28.80;45.24;99029.05;25124;1315;3026471;-63
2022/08/21 09:42:07;;;;;;;43.00;5.00;;;;;;;28.73;44.67;99026.21;25107;1315;3052567;-61
2022/08/21 09:44:41;;;;;;;35.80;4.40;;;;;;;28.76;44.82;99019.77;25141;1315;3027043;-61
2022/08/21 09:47:14;;;;;;;32.00;4.30;;;;;;;28.74;44.51;99017.39;25097;1314;3026485;-60
2022/08/21 09:49:43;;;;;;;46.90;6.50;;;;;;;28.68;44.33;99015.56;25096;1313;3026820;-62
2022/08/21 09:52:18;;;;;;;40.90;4.70;;;;;;;28.78;44.30;99008.90;25108;1313;3026867;-61
2022/08/21 09:54:51;;;;;;;42.70;4.90;;;;;;;28.93;43.34;99005.68;25106;1315;3051412;-63
2022/08/21 09:57:46;;;;;;;30.10;5.00;;;;;;;28.80;43.75;99005.40;25142;1315;3026597;-60
2022/08/21 10:00:29;;;;;;;36.30;4.20;;;;;;;28.85;43.77;99004.09;25027;1318;3051750;-62
2022/08/21 10:03:14;;;;;;;47.90;5.30;;;;;;;28.72;43.95;98993.20;25086;1315;3069595;-62
2022/08/21 10:05:51;;;;;;;30.90;4.60;;;;;;;28.65;43.51;98994.77;25050;1313;3049736;-62
2022/08/21 10:08:21;;;;;;;31.50;5.50;;;;;;;28.71;43.45;98992.09;25074;1315;3053589;-61
2022/08/21 10:10:54;;;;;;;43.40;4.60;;;;;;;28.72;43.39;98996.56;25089;1313;3026790;-63
2022/08/21 10:13:39;;;;;;;41.80;4.10;;;;;;;28.56;43.50;98992.53;25090;1315;3026583;-63
2022/08/21 10:16:33;;;;;;;30.80;4.20;;;;;;;28.35;43.78;98985.91;25083;1317;3051733;-63
2022/08/21 10:19:06;;;;;;;;;;;;;;;28.51;43.77;98977.99;25161;1313;3052986;-62
2022/08/21 10:21:45;;;;;;;39.30;4.50;;;;;;;28.44;43.77;98978.11;25080;1313;3053642;-62
2022/08/21 10:24:33;;;;;;;39.00;5.20;;;;;;;28.39;44.15;98980.10;25088;1313;3073512;-63
2022/08/21 10:27:16;;;;;;;30.30;4.30;;;;;;;28.61;43.66;98978.79;25061;1314;3048919;-64
2022/08/21 10:29:59;;;;;;;32.10;4.40;;;;;;;28.90;43.31;98967.73;25106;1315;3055791;-63
2022/08/21 10:33:06;;;;;;;29.80;3.60;;;;;;;29.16;41.95;98962.86;25071;1315;3055255;-62
2022/08/21 10:36:04;;;;;;;21.70;3.20;;;;;;;29.46;40.58;98964.95;25084;1317;3058826;-61
2022/08/21 10:38:54;;;;;;;34.60;3.90;;;;;;;29.62;40.40;98961.45;25079;1315;3052678;-62
2022/08/21 10:41:49;;;;;;;27.10;3.20;;;;;;;29.66;40.04;98961.01;25056;1314;3055613;-65
2022/08/21 10:44:24;;;;;;;33.80;3.10;;;;;;;29.75;39.71;98970.13;25058;1315;3054108;-61
2022/08/21 10:47:05;;;;;;;32.30;4.30;;;;;;;29.76;39.92;98977.25;25040;1314;3071113;-62
2022/08/21 10:50:26;;;;;;;25.70;3.40;;;;;;;29.86;39.53;98975.32;25027;1314;3051627;-63
2022/08/21 10:53:14;;;;;;;31.80;3.70;;;;;;;29.76;40.33;98985.69;25047;1315;3054713;-62
2022/08/21 10:55:51;;;;;;;32.40;4.30;;;;;;;29.65;39.91;98986.04;25057;1315;3055401;-64
2022/08/21 10:58:46;;;;;;;35.30;3.90;;;;;;;29.75;39.59;98984.75;25113;1314;3058740;-60
2022/08/21 11:01:19;;;;;;;42.40;4.20;;;;;;;29.72;39.22;98987.38;25017;1315;3049697;-61
2022/08/21 11:03:53;;;;;;;54.40;5.00;;;;;;;29.86;39.52;98988.73;25077;1314;3030597;-61
2022/08/21 11:06:28;;;;;;;31.60;3.50;;;;;;;29.80;39.64;98988.71;25052;1315;3049767;-61
2022/08/21 11:09:10;;;;;;;29.60;3.20;;;;;;;29.97;39.49;98990.48;25013;1314;3068592;-60
2022/08/21 11:11:44;;;;;;;28.30;3.70;;;;;;;30.07;39.39;98981.34;25002;1315;3051258;-61
2022/08/21 11:14:32;;;;;;;37.60;3.40;;;;;;;30.15;38.81;98976.86;25074;1314;3052142;-65
2022/08/21 11:17:10;;;;;;;29.20;2.60;;;;;;;30.19;38.71;98973.90;25061;1315;3055797;-61
2022/08/21 11:19:48;;;;;;;32.40;3.60;;;;;;;30.28;38.59;98967.50;25039;1313;3059259;-63
2022/08/21 11:22:24;;;;;;;28.50;3.30;;;;;;;30.20;38.47;98967.96;25017;1315;3051629;-61
2022/08/21 11:25:08;;;;;;;33.10;3.70;;;;;;;30.35;38.71;98970.01;25057;1315;3052193;-62
2022/08/21 11:27:43;;;;;;;;;;;;;;;30.43;38.63;98966.67;25100;1314;3054018;-64
2022/08/21 11:30:12;;;;;;;25.00;2.60;;;;;;;30.48;37.94;98965.98;25052;1314;3071666;-60
2022/08/21 11:32:57;;;;;;;23.80;3.10;;;;;;;30.55;37.88;98968.11;25104;1314;3026723;-62